Time;durP1;ratioP1;P1;durP2;ratioP2;P2;SDS_P1;SDS_P2;PMS_P1;PMS_P2;Temp;Humidity;BMP_temperature;BMP_pressure;BME280_temperature;BME280_humidity;BME280_pressure;Samples;Min_cycle;Max_cycle;Signal;HPM_P1;HPM_P2
2021/12/26 00:02:24;;;;;;;;;26.75;23.75;;;;;10.56;89.99;99532.00;5061004;28;45431;-68
2021/12/26 00:04:50;;;;;;;;;24.25;23.25;;;;;10.54;90.31;99521.56;5058187;28;45331;-70
2021/12/26 00:07:16;;;;;;;;;31.50;26.50;;;;;10.52;90.12;99516.41;5059095;28;46279;-68
2021/12/26 00:09:41;;;;;;;;;29.00;25.00;;;;;10.50;89.79;99523.53;5056981;28;45202;-70
2021/12/26 00:12:08;;;;;;;;;27.50;21.50;;;;;10.46;89.76;99519.41;5056586;28;45234;-71
2021/12/26 00:14:33;;;;;;;;;27.75;24.50;;;;;10.41;89.89;99515.31;5057154;28;45174;-70
2021/12/26 00:16:58;;;;;;;;;28.50;25.25;;;;;10.40;90.15;99513.63;5058755;28;46428;-73
2021/12/26 00:19:24;;;;;;;;;31.75;25.25;;;;;10.37;90.18;99512.00;5059901;28;45524;-72
2021/12/26 00:21:49;;;;;;;;;29.00;24.50;;;;;10.37;90.50;99518.09;5056980;28;45672;-73
2021/12/26 00:24:15;;;;;;;;;31.25;27.50;;;;;10.34;90.35;99513.00;5057318;28;45369;-74
2021/12/26 00:26:40;;;;;;;;;31.00;27.50;;;;;10.31;90.30;99501.84;5057112;28;46018;-73
2021/12/26 00:29:06;;;;;;;;;29.50;26.25;;;;;10.36;90.93;99510.31;5056429;28;45450;-73
2021/12/26 00:31:32;;;;;;;;;31.25;27.25;;;;;10.37;90.47;99504.94;5056302;28;45335;-67
2021/12/26 00:33:57;;;;;;;;;33.75;30.00;;;;;10.39;90.92;99507.50;5055599;28;45317;-68
2021/12/26 00:36:23;;;;;;;;;43.00;32.75;;;;;10.40;90.66;99511.84;5057136;28;46099;-72
2021/12/26 00:38:48;;;;;;;;;33.00;27.50;;;;;10.38;90.89;99506.63;5060466;28;45330;-72
2021/12/26 00:41:14;;;;;;;;;32.00;29.75;;;;;10.39;90.74;99502.25;5059982;28;45524;-70
2021/12/26 00:43:39;;;;;;;;;39.00;31.00;;;;;10.41;90.87;99494.28;5060792;28;45207;-72
2021/12/26 00:46:05;;;;;;;;;36.00;31.25;;;;;10.43;90.67;99493.28;5059731;28;45360;-72
2021/12/26 00:48:31;;;;;;;;;33.00;28.50;;;;;10.43;91.02;99490.66;5060092;28;45419;-70
2021/12/26 00:50:57;;;;;;;;;43.50;32.50;;;;;10.39;91.23;99478.59;5061625;28;45331;-67
2021/12/26 00:53:23;;;;;;;;;42.50;32.00;;;;;10.42;91.16;99488.09;5063277;28;45498;-66
2021/12/26 00:55:49;;;;;;;;;34.25;28.25;;;;;10.42;90.57;99493.34;5060975;28;45922;-69
2021/12/26 00:58:15;;;;;;;;;33.25;30.25;;;;;10.37;90.95;99490.97;5059727;28;45425;-69
2021/12/26 01:00:46;;;;;;;;;39.50;30.00;;;;;10.37;90.69;99502.31;5059891;28;45870;-69
2021/12/26 01:03:13;;;;;;;;;24.00;21.25;;;;;10.38;91.30;99495.28;5061949;28;45501;-70
2021/12/26 01:05:41;;;;;;;;;33.75;28.50;;;;;10.41;90.74;99504.81;5062460;28;46194;-72
2021/12/26 01:08:09;;;;;;;;;36.25;30.75;;;;;10.43;91.13;99498.53;5059550;28;45407;-69
2021/12/26 01:10:46;;;;;;;;;41.25;30.75;;;;;10.44;90.99;99499.38;5059375;28;45248;-72
2021/12/26 01:13:35;;;;;;;;;43.25;34.75;;;;;10.43;91.02;99503.78;5059630;28;45506;-70
2021/12/26 01:16:04;;;;;;;;;34.00;27.75;;;;;10.41;90.51;99503.03;5061240;28;46120;-73
2021/12/26 01:18:33;;;;;;;;;34.00;28.75;;;;;10.42;90.59;99504.72;5061781;28;45414;-72
2021/12/26 01:21:16;;;;;;;;;35.50;29.50;;;;;10.41;90.73;99499.53;5061010;28;45296;-71
2021/12/26 01:23:44;;;;;;;;;37.00;31.25;;;;;10.42;90.89;99496.84;5060654;28;45491;-72
2021/12/26 01:26:10;;;;;;;;;37.75;31.75;;;;;10.43;90.59;99493.28;5060149;28;45449;-69
2021/12/26 01:28:35;;;;;;;;;33.25;27.50;;;;;10.41;90.49;99502.19;5059746;28;45366;-72
2021/12/26 01:31:01;;;;;;;;;47.50;37.00;;;;;10.39;90.42;99510.13;5059812;28;45476;-72
2021/12/26 01:33:27;;;;;;;;;39.25;30.50;;;;;10.36;90.38;99499.78;5059646;28;45574;-71
2021/12/26 01:35:53;;;;;;;;;28.25;28.00;;;;;10.35;90.85;99498.94;5057840;28;48057;-71
2021/12/26 01:38:20;;;;;;;;;33.75;30.00;;;;;10.37;91.16;99504.94;5059563;28;45477;-72
2021/12/26 01:40:50;;;;;;;;;25.25;23.75;;;;;10.35;90.61;99496.31;5059656;28;45629;-71
2021/12/26 01:43:19;;;;;;;;;33.00;26.50;;;;;10.36;91.10;99495.38;5060536;28;44962;-71
2021/12/26 01:45:44;;;;;;;;;26.75;24.25;;;;;10.38;90.70;99501.38;5059580;28;45598;-69
2021/12/26 01:48:10;;;;;;;;;36.50;31.50;;;;;10.38;90.68;99503.19;5059518;28;45210;-73
2021/12/26 01:50:36;;;;;;;;;33.50;31.50;;;;;10.40;90.96;99492.59;5060289;28;45236;-72
2021/12/26 01:53:04;;;;;;;;;34.00;30.50;;;;;10.39;90.58;99483.84;5059822;28;45524;-73
2021/12/26 01:55:44;;;;;;;;;32.75;26.50;;;;;10.38;90.59;99492.66;5058633;28;46330;-71
2021/12/26 01:58:17;;;;;;;;;30.00;28.25;;;;;10.38;91.03;99485.59;5058976;28;45350;-71
2021/12/26 02:00:46;;;;;;;;;31.00;27.75;;;;;10.35;90.72;99488.41;5059126;28;45314;-71
2021/12/26 02:03:11;;;;;;;;;33.00;30.00;;;;;10.38;90.23;99493.50;5041375;28;45256;-68
2021/12/26 02:05:37;;;;;;;;;45.25;35.75;;;;;10.42;90.82;99488.09;5059065;28;45380;-71
2021/12/26 02:08:04;;;;;;;;;49.25;38.50;;;;;10.43;90.77;99488.03;5061084;28;45252;-72
2021/12/26 02:10:30;;;;;;;;;49.00;39.75;;;;;10.40;90.52;99482.06;5058845;28;45478;-72
2021/12/26 02:12:55;;;;;;;;;66.00;49.75;;;;;10.30;90.43;99477.31;5059187;28;45405;-71
2021/12/26 02:15:20;;;;;;;;;68.50;51.50;;;;;10.33;90.76;99476.31;5059017;28;45333;-72
2021/12/26 02:17:46;;;;;;;;;74.50;61.25;;;;;10.30;90.32;99498.34;5058745;28;45402;-71
2021/12/26 02:20:21;;;;;;;;;82.67;71.00;;;;;10.33;90.52;99498.16;5059125;28;45607;-70
2021/12/26 02:22:54;;;;;;;;;80.33;69.00;;;;;10.31;90.80;99502.66;5059808;28;45261;-68
2021/12/26 02:27:31;;;;;;;;;57.00;45.25;;;;;10.26;90.78;99493.34;5059879;28;45524;-73
2021/12/26 02:28:18;;;;;;;;;46.75;38.50;;;;;10.28;90.87;99494.94;5069730;28;45413;-69
2021/12/26 02:30:45;;;;;;;;;42.75;33.00;;;;;10.27;90.58;99498.53;5061931;28;45354;-73
2021/12/26 02:33:12;;;;;;;;;38.50;31.50;;;;;10.27;90.97;99493.25;5061096;28;45593;-72
2021/12/26 02:35:41;;;;;;;;;32.75;29.00;;;;;10.28;90.99;99492.31;5059202;28;46071;-73
2021/12/26 02:38:09;;;;;;;;;33.75;26.50;;;;;10.29;91.03;99501.91;5058529;28;45346;-70
2021/12/26 02:40:34;;;;;;;;;36.50;31.50;;;;;10.24;90.22;99485.53;5060965;28;45300;-72
2021/12/26 02:43:00;;;;;;;;;31.25;28.50;;;;;10.29;90.47;99493.19;5058502;28;45154;-72
2021/12/26 02:45:25;;;;;;;;;32.50;27.25;;;;;10.26;90.53;99483.69;5058374;28;45311;-67
2021/12/26 02:47:52;;;;;;;;;30.00;27.50;;;;;10.29;90.73;99494.03;5058798;28;45258;-73
2021/12/26 02:50:24;;;;;;;;;33.25;28.50;;;;;10.27;90.70;99476.66;5058628;28;45311;-72
2021/12/26 02:52:51;;;;;;;;;34.75;30.00;;;;;10.25;90.95;99482.00;5040186;28;45634;-71
2021/12/26 02:55:19;;;;;;;;;32.00;29.25;;;;;10.27;91.04;99484.53;5058249;28;45323;-70
2021/12/26 02:57:54;;;;;;;;;32.25;27.75;;;;;10.26;90.37;99483.69;5058767;28;45355;-72
2021/12/26 03:00:22;;;;;;;;;30.75;26.25;;;;;10.26;90.47;99480.22;5059649;28;45397;-71
2021/12/26 03:02:52;;;;;;;;;28.50;26.00;;;;;10.25;90.88;99479.34;5040808;28;45501;-72
2021/12/26 03:05:19;;;;;;;;;30.25;26.50;;;;;10.22;90.78;99475.13;5057776;28;46204;-69
2021/12/26 03:07:48;;;;;;;;;43.50;34.00;;;;;10.28;91.00;99478.34;5058305;28;46194;-72
2021/12/26 03:10:23;;;;;;;;;33.75;28.00;;;;;10.27;90.55;99476.66;5058195;28;45442;-71
2021/12/26 03:12:57;;;;;;;;;28.75;26.75;;;;;10.26;91.04;99478.44;5057849;28;45389;-70
2021/12/26 03:15:24;;;;;;;;;27.00;24.50;;;;;10.27;91.05;99477.50;5067945;28;46078;-69
2021/12/26 03:17:50;;;;;;;;;32.25;23.50;;;;;10.26;90.82;99474.97;5059989;28;45425;-74
2021/12/26 03:20:19;;;;;;;;;32.00;26.00;;;;;10.27;91.47;99481.91;5039843;28;45245;-67
2021/12/26 03:22:45;;;;;;;;;31.00;28.00;;;;;10.17;91.12;99471.94;5059006;28;45462;-67
2021/12/26 03:25:17;;;;;;;;;40.75;34.50;;;;;10.18;91.33;99484.13;5056859;28;46946;-67
2021/12/26 03:27:42;;;;;;;;;33.00;29.25;;;;;10.15;91.56;99476.41;5061269;28;45198;-69
2021/12/26 03:30:10;;;;;;;;;34.50;28.75;;;;;10.14;91.49;99474.72;5057914;28;45497;-68
2021/12/26 03:32:35;;;;;;;;;39.25;33.50;;;;;10.12;91.95;99475.72;5057997;28;45593;-69
2021/12/26 03:35:01;;;;;;;;;30.75;28.25;;;;;10.14;91.70;99476.50;5059604;28;45533;-68
2021/12/26 03:37:28;;;;;;;;;30.75;28.25;;;;;10.06;91.65;99467.25;5064273;28;45441;-70
2021/12/26 03:39:54;;;;;;;;;34.25;28.50;;;;;10.09;91.70;99476.75;5058243;28;45424;-68
2021/12/26 03:42:21;;;;;;;;;29.25;24.25;;;;;10.11;91.74;99477.53;5057232;28;45529;-66
2021/12/26 03:44:47;;;;;;;;;32.75;28.00;;;;;9.98;91.63;99455.47;5038024;28;46288;-70
2021/12/26 03:47:13;;;;;;;;;36.00;31.50;;;;;10.08;92.12;99477.69;5038682;28;45418;-66
2021/12/26 03:49:38;;;;;;;;;37.50;31.00;;;;;10.03;92.25;99474.44;5057220;28;45436;-69
2021/12/26 03:52:04;;;;;;;;;32.50;29.25;;;;;10.08;92.04;99482.94;5057423;28;45197;-72
2021/12/26 03:54:29;;;;;;;;;35.75;31.50;;;;;10.05;92.24;99473.44;5039666;28;48303;-69
2021/12/26 03:56:55;;;;;;;;;34.00;31.00;;;;;10.02;92.05;99463.09;5057598;28;45328;-74
2021/12/26 03:59:20;;;;;;;;;31.25;29.00;;;;;10.01;92.70;99466.66;5058218;28;45306;-72
2021/12/26 04:01:45;;;;;;;;;41.00;32.00;;;;;10.02;92.86;99462.25;5057685;28;45322;-71
2021/12/26 04:04:11;;;;;;;;;38.25;32.75;;;;;10.05;92.96;99470.81;5057262;28;46292;-71
2021/12/26 04:06:36;;;;;;;;;38.75;31.50;;;;;10.06;92.92;99469.88;5057458;28;45309;-72
2021/12/26 04:09:02;;;;;;;;;38.75;29.25;;;;;10.06;92.22;99469.03;5060397;28;45209;-71
2021/12/26 04:11:28;;;;;;;;;36.25;30.25;;;;;10.03;92.75;99456.06;5057828;28;45319;-70
2021/12/26 04:13:53;;;;;;;;;33.75;32.00;;;;;10.05;92.70;99457.69;5058687;28;45915;-71
2021/12/26 04:16:18;;;;;;;;;35.75;29.75;;;;;10.07;92.56;99458.44;5060888;28;45420;-71
2021/12/26 04:18:44;;;;;;;;;34.50;29.75;;;;;10.08;92.55;99452.25;5060778;28;45636;-71
2021/12/26 04:21:09;;;;;;;;;34.25;30.25;;;;;10.08;92.58;99444.38;5061717;28;45241;-71
2021/12/26 04:23:35;;;;;;;;;33.50;27.75;;;;;10.08;92.56;99443.53;5060507;28;45476;-70
2021/12/26 04:26:01;;;;;;;;;29.25;26.75;;;;;10.12;92.10;99446.81;5061632;28;45356;-66
2021/12/26 04:28:27;;;;;;;;;28.25;27.00;;;;;10.06;92.41;99440.13;5061931;28;45393;-71
2021/12/26 04:30:53;;;;;;;;;36.25;29.25;;;;;10.04;91.85;99447.25;5064307;28;45321;-72
2021/12/26 04:33:19;;;;;;;;;29.75;27.50;;;;;9.98;91.85;99434.44;5062107;28;45258;-70
2021/12/26 04:35:45;;;;;;;;;30.50;27.00;;;;;10.02;92.31;99446.47;5058684;28;45653;-66
2021/12/26 04:38:10;;;;;;;;;35.00;29.25;;;;;9.99;92.34;99447.53;5060822;28;45351;-66
2021/12/26 04:40:36;;;;;;;;;33.25;29.50;;;;;10.00;92.35;99448.34;5059998;28;45548;-67
2021/12/26 04:43:01;;;;;;;;;34.75;29.50;;;;;9.98;92.47;99448.44;5060210;28;46102;-65
2021/12/26 04:45:26;;;;;;;;;35.25;28.25;;;;;9.96;92.48;99446.81;5061301;28;45339;-71
2021/12/26 04:47:52;;;;;;;;;34.00;30.75;;;;;10.02;92.72;99442.09;5061399;28;45384;-72
2021/12/26 04:50:24;;;;;;;;;34.00;29.00;;;;;10.04;91.54;99447.25;5060988;28;45290;-71
2021/12/26 04:52:51;;;;;;;;;29.25;27.75;;;;;10.01;92.12;99437.78;5060833;28;48303;-73
2021/12/26 04:55:23;;;;;;;;;35.25;30.00;;;;;9.99;92.16;99430.88;5063246;28;45468;-71
2021/12/26 04:57:49;;;;;;;;;34.50;31.25;;;;;10.04;92.10;99440.22;5060571;28;45219;-71
2021/12/26 05:00:20;;;;;;;;;32.75;29.00;;;;;10.04;92.12;99429.72;5060647;28;45440;-71
2021/12/26 05:02:46;;;;;;;;;37.75;33.50;;;;;10.01;92.07;99435.16;5065581;28;46244;-73
2021/12/26 05:05:13;;;;;;;;;31.75;29.25;;;;;10.03;92.10;99427.16;5065085;28;45562;-72
2021/12/26 05:07:40;;;;;;;;;33.00;28.25;;;;;10.06;92.29;99435.72;5065524;28;45404;-74
2021/12/26 05:10:07;;;;;;;;;32.75;28.75;;;;;10.05;91.99;99431.41;5060332;28;45363;-71
2021/12/26 05:12:33;;;;;;;;;28.75;26.00;;;;;10.03;92.85;99433.28;5061845;28;45425;-69
2021/12/26 05:14:58;;;;;;;;;29.50;27.00;;;;;10.03;92.79;99428.03;5060020;28;45331;-72
2021/12/26 05:17:24;;;;;;;;;32.00;24.75;;;;;10.04;93.14;99432.34;5059538;28;45502;-69
2021/12/26 05:19:49;;;;;;;;;30.25;26.25;;;;;10.02;92.72;99434.22;5059366;28;45539;-67
2021/12/26 05:22:14;;;;;;;;;30.50;27.25;;;;;9.99;93.54;99433.53;5057776;28;46318;-69
2021/12/26 05:24:40;;;;;;;;;29.75;27.00;;;;;9.95;93.15;99424.97;5060605;28;45382;-71
2021/12/26 05:27:05;;;;;;;;;32.50;25.00;;;;;9.91;92.78;99420.84;5059074;28;45340;-70
2021/12/26 05:29:31;;;;;;;;;30.75;27.25;;;;;9.92;93.42;99422.53;5060463;28;45324;-72
2021/12/26 05:31:56;;;;;;;;;33.25;27.25;;;;;9.93;93.43;99411.09;5059963;28;45945;-71
2021/12/26 05:34:21;;;;;;;;;30.25;28.50;;;;;9.94;92.85;99410.97;5059871;28;45213;-70
2021/12/26 05:36:47;;;;;;;;;24.75;22.50;;;;;9.93;93.47;99417.16;5059312;28;45287;-70
2021/12/26 05:39:13;;;;;;;;;26.75;24.50;;;;;9.90;93.03;99412.09;5062538;28;45247;-73
2021/12/26 05:41:41;;;;;;;;;24.25;23.50;;;;;9.91;93.11;99413.78;5059753;28;46089;-71
2021/12/26 05:44:08;;;;;;;;;30.00;27.50;;;;;9.96;93.43;99410.91;5059217;28;45308;-71
2021/12/26 05:46:34;;;;;;;;;27.75;26.00;;;;;9.98;93.10;99408.19;5059599;28;45426;-72
2021/12/26 05:49:00;;;;;;;;;27.25;25.25;;;;;9.93;93.32;99411.91;5061045;28;45582;-71
2021/12/26 05:51:26;;;;;;;;;29.50;24.50;;;;;9.94;92.82;99412.78;5059326;28;45626;-70
2021/12/26 05:53:51;;;;;;;;;27.50;24.75;;;;;9.99;92.94;99415.13;5058636;28;44885;-71
2021/12/26 05:56:16;;;;;;;;;24.75;24.75;;;;;9.99;92.99;99415.13;5059625;28;45228;-69
2021/12/26 05:58:42;;;;;;;;;28.50;25.50;;;;;9.94;93.14;99413.63;5059828;28;45533;-73
2021/12/26 06:01:07;;;;;;;;;28.75;24.25;;;;;9.97;92.80;99424.88;5058957;28;46014;-69
2021/12/26 06:03:33;;;;;;;;;29.00;26.25;;;;;9.94;93.20;99420.66;5058996;28;45426;-72
2021/12/26 06:05:58;;;;;;;;;28.25;26.50;;;;;9.94;93.14;99420.66;5059052;28;45520;-71
2021/12/26 06:08:23;;;;;;;;;25.25;23.25;;;;;9.97;93.66;99417.00;5059053;28;45221;-73
2021/12/26 06:10:49;;;;;;;;;24.75;23.50;;;;;9.97;93.53;99423.13;5058856;28;45312;-71
2021/12/26 06:13:14;;;;;;;;;26.00;22.25;;;;;10.00;93.26;99412.44;5061018;28;45398;-72
2021/12/26 06:15:39;;;;;;;;;30.50;24.00;;;;;10.00;93.25;99411.56;5059062;28;45204;-70
2021/12/26 06:18:05;;;;;;;;;25.75;24.00;;;;;10.02;93.20;99412.34;5060333;28;45309;-71
2021/12/26 06:20:30;;;;;;;;;19.75;19.75;;;;;10.00;92.89;99412.44;5059233;28;46462;-72
2021/12/26 06:22:55;;;;;;;;;24.25;22.50;;;;;9.99;93.01;99421.25;5060309;28;45388;-73
2021/12/26 06:25:21;;;;;;;;;26.75;24.50;;;;;9.99;93.19;99421.25;5061941;28;45711;-72
2021/12/26 06:27:46;;;;;;;;;23.25;22.50;;;;;9.96;93.01;99410.06;5060302;28;45344;-71
2021/12/26 06:30:13;;;;;;;;;27.00;24.75;;;;;9.98;93.25;99411.66;5060817;28;46306;-73
2021/12/26 06:32:39;;;;;;;;;27.75;23.50;;;;;9.99;93.37;99415.13;5042234;28;45422;-73
2021/12/26 06:35:05;;;;;;;;;26.75;22.00;;;;;9.99;93.31;99409.88;5059286;28;45375;-72
2021/12/26 06:37:30;;;;;;;;;25.25;21.25;;;;;10.01;93.11;99416.75;5059315;28;45161;-69
2021/12/26 06:39:59;;;;;;;;;29.50;23.50;;;;;10.02;93.07;99417.59;5058191;28;45316;-72
2021/12/26 06:42:24;;;;;;;;;28.50;26.75;;;;;9.96;93.12;99405.66;5058617;28;45213;-70
2021/12/26 06:44:50;;;;;;;;;25.00;24.00;;;;;10.04;93.60;99427.09;5058319;28;45534;-69
2021/12/26 06:47:16;;;;;;;;;25.00;22.50;;;;;10.06;93.41;99414.72;5058696;28;45650;-72
2021/12/26 06:49:42;;;;;;;;;24.00;21.75;;;;;10.08;92.84;99415.47;5058669;28;45311;-70
2021/12/26 06:52:07;;;;;;;;;24.50;23.50;;;;;10.07;93.36;99412.91;5058452;28;45512;-71
2021/12/26 06:54:33;;;;;;;;;21.00;20.75;;;;;10.06;92.59;99412.09;5058843;28;45799;-70
2021/12/26 06:56:58;;;;;;;;;29.75;27.50;;;;;10.10;93.27;99412.78;5059207;28;45574;-72
2021/12/26 06:59:24;;;;;;;;;26.75;23.75;;;;;10.12;93.24;99412.66;5059116;28;45392;-73
2021/12/26 07:01:49;;;;;;;;;27.00;24.75;;;;;10.13;93.13;99414.34;5060123;28;45341;-73
2021/12/26 07:04:15;;;;;;;;;25.75;24.00;;;;;10.14;93.42;99405.53;5058255;28;45336;-72
2021/12/26 07:06:40;;;;;;;;;28.75;24.50;;;;;10.09;92.93;99405.81;5057194;28;45328;-70
2021/12/26 07:09:05;;;;;;;;;22.25;22.25;;;;;10.16;93.41;99415.03;5063044;28;45903;-71
2021/12/26 07:11:31;;;;;;;;;22.75;22.00;;;;;10.15;92.85;99407.22;5059570;28;45192;-71
2021/12/26 07:13:56;;;;;;;;;26.75;26.50;;;;;10.18;93.32;99412.31;5059386;28;45307;-70
2021/12/26 07:16:23;;;;;;;;;27.00;21.75;;;;;10.19;92.73;99406.13;5061054;28;45508;-68
2021/12/26 07:18:49;;;;;;;;;21.75;20.25;;;;;10.19;92.68;99416.63;5063950;28;46170;-69
2021/12/26 07:21:16;;;;;;;;;23.75;21.00;;;;;10.15;92.97;99401.97;5060501;28;45252;-72
2021/12/26 07:23:41;;;;;;;;;29.75;25.00;;;;;10.20;92.88;99413.06;5059342;28;45441;-71
2021/12/26 07:26:07;;;;;;;;;27.00;24.75;;;;;10.17;93.27;99406.22;5058857;28;45493;-72
2021/12/26 07:28:32;;;;;;;;;17.75;17.75;;;;;10.24;93.15;99419.84;5057692;28;46003;-69
2021/12/26 07:30:58;;;;;;;;;24.50;21.00;;;;;10.25;92.86;99421.53;5058381;28;45240;-71
2021/12/26 07:33:23;;;;;;;;;21.75;20.75;;;;;10.21;92.67;99420.03;5057779;28;45313;-71
2021/12/26 07:35:48;;;;;;;;;24.00;23.75;;;;;10.20;92.88;99421.81;5056209;28;45479;-70
2021/12/26 07:38:14;;;;;;;;;22.25;20.50;;;;;10.18;92.91;99425.44;5057833;28;46075;-74
2021/12/26 07:40:39;;;;;;;;;23.50;23.00;;;;;10.21;93.01;99434.03;5040152;28;45435;-72
2021/12/26 07:43:04;;;;;;;;;26.00;24.50;;;;;10.20;93.17;99434.09;5056475;28;45366;-72
2021/12/26 07:45:30;;;;;;;;;23.25;20.75;;;;;10.18;93.29;99428.09;5057323;28;45225;-72
2021/12/26 07:47:55;;;;;;;;;19.50;19.25;;;;;10.22;93.63;99424.34;5058594;28;46303;-73
2021/12/26 07:50:21;;;;;;;;;23.25;20.00;;;;;10.23;93.30;99424.28;5056853;28;45480;-73
2021/12/26 07:52:48;;;;;;;;;25.75;21.50;;;;;10.24;93.60;99419.84;5057615;28;45266;-72
2021/12/26 07:55:13;;;;;;;;;23.75;19.75;;;;;10.23;93.65;99412.91;5057934;28;45582;-73
2021/12/26 07:57:48;;;;;;;;;22.50;20.00;;;;;10.28;93.84;99424.00;5059390;28;46245;-72
2021/12/26 08:00:15;;;;;;;;;25.25;22.25;;;;;10.30;93.96;99424.75;5057082;28;45228;-69
2021/12/26 08:02:40;;;;;;;;;26.75;19.25;;;;;10.33;93.75;99429.81;5057620;28;45426;-72
2021/12/26 08:05:07;;;;;;;;;23.75;20.25;;;;;10.37;93.36;99435.78;5058241;28;45373;-72
2021/12/26 08:07:34;;;;;;;;;24.25;20.25;;;;;10.41;93.84;99439.09;5057873;28;45338;-72
2021/12/26 08:10:00;;;;;;;;;22.00;20.50;;;;;10.38;93.74;99427.78;5057448;28;45354;-73
2021/12/26 08:12:26;;;;;;;;;22.50;20.00;;;;;10.42;93.14;99433.75;5057977;28;45373;-74
2021/12/26 08:14:51;;;;;;;;;21.50;18.75;;;;;10.42;93.69;99441.63;5057383;28;45562;-71
2021/12/26 08:17:16;;;;;;;;;22.00;20.00;;;;;10.42;93.85;99443.41;5056588;28;45236;-73
2021/12/26 08:19:42;;;;;;;;;22.50;20.00;;;;;10.43;93.76;99445.09;5057014;28;45350;-72
2021/12/26 08:22:07;;;;;;;;;33.50;22.50;;;;;10.47;93.40;99441.34;5057846;28;45326;-71
2021/12/26 08:24:33;;;;;;;;;24.25;21.00;;;;;10.50;93.63;99434.16;5057873;28;45257;-71
2021/12/26 08:26:58;;;;;;;;;30.00;22.25;;;;;10.54;93.16;99440.06;5056215;28;46520;-70
2021/12/26 08:29:24;;;;;;;;;28.50;23.50;;;;;10.56;93.62;99438.19;5057087;28;45263;-71
2021/12/26 08:31:53;;;;;;;;;23.50;19.25;;;;;10.58;93.42;99446.00;5057223;28;45339;-71
2021/12/26 08:34:21;;;;;;;;;20.25;16.00;;;;;10.56;93.36;99448.69;5056032;28;45373;-66
2021/12/26 08:36:58;;;;;;;;;24.50;23.00;;;;;10.56;93.72;99448.69;5040810;28;46137;-66
2021/12/26 08:39:25;;;;;;;;;24.75;21.00;;;;;10.59;93.53;99459.03;5056903;28;45447;-65
2021/12/26 08:41:50;;;;;;;;;22.00;19.00;;;;;10.61;93.96;99451.94;5054028;28;45409;-66
2021/12/26 08:44:16;;;;;;;;;24.25;18.75;;;;;10.64;93.31;99451.75;5059199;28;45287;-67
2021/12/26 08:46:43;;;;;;;;;26.50;22.00;;;;;10.65;93.53;99456.09;5055294;28;46119;-65
2021/12/26 08:49:09;;;;;;;;;26.75;21.50;;;;;10.69;93.33;99454.09;5055752;28;45342;-67
2021/12/26 08:51:35;;;;;;;;;24.50;20.75;;;;;10.73;93.63;99458.25;5054849;28;45445;-66
2021/12/26 08:54:02;;;;;;;;;24.25;19.75;;;;;10.75;93.45;99464.25;5055390;28;45539;-65
2021/12/26 08:56:28;;;;;;;;;21.25;16.50;;;;;10.78;93.14;99464.06;5055289;28;46393;-67
2021/12/26 08:58:54;;;;;;;;;21.25;20.25;;;;;10.77;92.96;99453.66;5055888;28;45227;-72
2021/12/26 09:01:19;;;;;;;;;31.00;26.00;;;;;10.81;93.28;99463.91;5056614;28;45294;-71
2021/12/26 09:03:44;;;;;;;;;32.50;22.25;;;;;10.81;92.94;99463.06;5061057;28;45240;-66
2021/12/26 09:06:10;;;;;;;;;26.00;21.75;;;;;10.81;92.72;99466.53;5065846;28;46049;-71
2021/12/26 09:08:35;;;;;;;;;26.25;22.75;;;;;10.82;93.09;99467.41;5060202;28;45566;-71
2021/12/26 09:11:00;;;;;;;;;24.25;21.00;;;;;10.83;92.95;99466.44;5059959;28;45486;-72
2021/12/26 09:13:26;;;;;;;;;20.25;17.50;;;;;10.86;92.66;99481.19;5059260;28;45560;-70
2021/12/26 09:15:52;;;;;;;;;19.75;18.00;;;;;10.86;92.76;99474.16;5058345;28;46143;-68
2021/12/26 09:18:17;;;;;;;;;21.00;17.50;;;;;10.92;92.75;99475.56;5058823;28;45341;-71
2021/12/26 09:20:42;;;;;;;;;23.75;19.00;;;;;10.96;92.54;99482.34;5059462;28;45338;-70
2021/12/26 09:23:08;;;;;;;;;24.25;20.75;;;;;10.96;92.93;99474.44;5059365;28;45518;-71
2021/12/26 09:25:33;;;;;;;;;24.75;20.00;;;;;11.02;92.93;99474.06;5060765;28;45379;-73
2021/12/26 09:27:58;;;;;;;;;30.50;21.00;;;;;11.05;92.35;99486.22;5062323;28;45481;-74
2021/12/26 09:30:24;;;;;;;;;27.00;18.25;;;;;11.06;92.06;99485.28;5060408;28;45397;-75
2021/12/26 09:32:50;;;;;;;;;20.75;17.00;;;;;11.04;92.46;99495.06;5058231;28;45490;-73
2021/12/26 09:35:16;;;;;;;;;20.25;16.50;;;;;11.04;92.32;99493.25;5058015;28;45300;-65
2021/12/26 09:37:44;;;;;;;;;25.75;19.50;;;;;11.04;91.73;99482.72;5058150;28;45310;-70
2021/12/26 09:40:11;;;;;;;;;16.75;16.75;;;;;11.04;91.86;99482.72;5058119;28;45197;-68
2021/12/26 09:42:37;;;;;;;;;27.00;21.25;;;;;11.06;91.83;99486.13;5058939;28;45584;-70
2021/12/26 09:45:05;;;;;;;;;23.50;18.75;;;;;11.06;92.30;99486.13;5057828;28;47126;-72
2021/12/26 09:47:30;;;;;;;;;17.25;16.25;;;;;11.08;92.01;99480.78;5058111;28;45379;-69
2021/12/26 09:49:56;;;;;;;;;13.75;13.00;;;;;11.09;91.97;99483.28;5040056;28;45412;-69
2021/12/26 09:52:21;;;;;;;;;20.75;16.75;;;;;11.13;91.84;99496.28;5058454;28;45365;-66
2021/12/26 09:54:46;;;;;;;;;25.25;18.50;;;;;11.13;92.20;99486.59;5058412;28;46045;-67
2021/12/26 09:57:12;;;;;;;;;20.25;17.00;;;;;11.16;91.70;99485.59;5058156;28;45230;-71
2021/12/26 09:59:38;;;;;;;;;19.75;15.50;;;;;11.17;91.62;99488.13;5058276;28;45269;-70
2021/12/26 10:02:13;;;;;;;;;20.50;16.50;;;;;11.20;91.51;99493.19;5060047;28;45251;-71
2021/12/26 10:04:39;;;;;;;;;18.25;16.50;;;;;11.22;91.69;99487.84;5066827;28;46191;-72
2021/12/26 10:07:15;;;;;;;;;15.25;14.25;;;;;11.23;91.17;99493.00;5062095;28;45261;-73
2021/12/26 10:09:51;;;;;;;;;18.50;15.00;;;;;11.20;91.12;99487.09;5058760;28;45288;-71
2021/12/26 10:12:20;;;;;;;;;20.75;16.50;;;;;11.18;91.02;99484.53;5059565;28;45477;-66
2021/12/26 10:14:51;;;;;;;;;25.75;15.25;;;;;11.24;91.45;99488.59;5058788;28;46333;-73
2021/12/26 10:17:23;;;;;;;;;102.33;98.67;;;;;11.27;91.29;99488.41;5059132;28;45345;-74
2021/12/26 10:19:50;;;;;;;;;24.00;20.75;;;;;11.27;91.02;99482.28;5058684;28;45387;-73
2021/12/26 10:22:26;;;;;;;;;20.25;16.25;;;;;11.30;90.97;99482.09;5060521;28;45517;-70
2021/12/26 10:24:52;;;;;;;;;19.25;17.25;;;;;11.29;91.23;99470.75;5059464;28;45751;-67
2021/12/26 10:27:24;;;;;;;;;17.50;15.00;;;;;11.31;91.15;99474.13;5057979;28;45333;-70
2021/12/26 10:29:55;;;;;;;;;21.00;14.50;;;;;11.33;91.31;99464.34;5057319;28;45398;-71
2021/12/26 10:32:20;;;;;;;;;21.75;15.75;;;;;11.38;91.68;99470.19;5057298;28;45411;-72
2021/12/26 10:34:54;;;;;;;;;20.75;16.50;;;;;11.43;91.17;99461.97;5057612;28;46062;-75
2021/12/26 10:37:28;;;;;;;;;17.75;15.75;;;;;11.42;90.61;99465.56;5058533;28;45389;-73
2021/12/26 10:40:11;;;;;;;;;24.50;18.75;;;;;11.44;91.01;99462.84;5057721;28;45441;-73
2021/12/26 10:42:39;;;;;;;;;23.25;16.50;;;;;11.43;91.11;99469.88;5057830;28;45293;-66
2021/12/26 10:45:12;;;;;;;;;16.25;14.50;;;;;11.42;91.20;99462.91;5056726;28;46364;-67
2021/12/26 10:47:40;;;;;;;;;19.75;17.50;;;;;11.41;90.82;99458.59;5056671;28;45487;-71
2021/12/26 10:50:18;;;;;;;;;16.25;14.75;;;;;11.41;90.92;99461.22;5056450;28;45451;-66
2021/12/26 10:52:57;;;;;;;;;18.00;15.25;;;;;11.44;90.64;99461.03;5056524;28;45557;-67
2021/12/26 10:55:43;;;;;;;;;16.75;12.75;;;;;11.45;90.82;99454.00;5055922;28;46720;-68
2021/12/26 10:58:14;;;;;;;;;14.50;14.25;;;;;11.44;91.32;99455.78;5057419;28;45300;-72
2021/12/26 11:00:45;;;;;;;;;14.00;14.00;;;;;11.44;91.52;99457.56;5059804;28;45304;-69
2021/12/26 11:03:22;;;;;;;;;18.00;16.50;;;;;11.45;91.93;99449.56;5061796;28;45983;-72
2021/12/26 11:05:51;;;;;;;;;17.50;16.50;;;;;11.44;92.05;99447.03;5042492;28;47069;-72
2021/12/26 11:08:29;;;;;;;;;16.75;15.25;;;;;11.40;92.21;99449.00;5056696;28;45505;-72
2021/12/26 11:10:56;;;;;;;;;17.00;15.00;;;;;11.38;92.40;99448.25;5056586;28;45453;-72
2021/12/26 11:13:25;;;;;;;;;24.75;21.50;;;;;11.34;92.98;99444.97;5056549;28;45486;-71
2021/12/26 11:15:58;;;;;;;;;17.75;17.25;;;;;11.29;92.42;99446.19;5056448;28;46150;-73
2021/12/26 11:18:25;;;;;;;;;15.75;14.50;;;;;11.22;93.11;99458.91;5057575;28;45276;-73
2021/12/26 11:20:57;;;;;;;;;17.75;17.00;;;;;11.15;93.92;99457.56;5057093;28;45468;-71